createdAt,value
2022-11-18T00:00:22.136Z,99306.59
2022-11-18T00:03:17.080Z,99288.81
2022-11-18T00:07:22.313Z,99288.34
2022-11-18T00:10:57.395Z,99298.03
2022-11-18T00:13:50.649Z,99294.47
2022-11-18T00:16:20.745Z,99299.72
2022-11-18T00:18:48.574Z,99284.81
2022-11-18T00:21:17.384Z,99293.84
2022-11-18T00:23:45.044Z,99299.94
2022-11-18T00:26:14.258Z,99298.22
2022-11-18T00:28:42.166Z,99293.84
2022-11-18T00:31:11.966Z,99298.66
2022-11-18T00:33:40.756Z,99284.66
2022-11-18T00:36:11.157Z,99289.53
2022-11-18T00:38:40.248Z,99290.44
2022-11-18T00:41:10.594Z,99290.03
2022-11-18T00:43:39.230Z,99292.66
2022-11-18T00:46:08.636Z,99276.97
2022-11-18T00:48:36.707Z,99272.75
2022-11-18T00:51:19.212Z,99274.97
2022-11-18T00:53:47.219Z,99276.53
2022-11-18T00:56:14.975Z,99283.81
2022-11-18T00:58:42.653Z,99273.88
2022-11-18T01:01:10.545Z,99277.22
2022-11-18T01:03:38.298Z,99272.16
2022-11-18T01:06:06.033Z,99269.50
2022-11-18T01:08:33.842Z,99263.31
2022-11-18T01:11:21.702Z,99245.22
2022-11-18T01:13:50.544Z,99245.22
2022-11-18T01:16:23.992Z,99250.66
2022-11-18T01:18:51.755Z,99267.59
2022-11-18T01:21:19.764Z,99270.06
2022-11-18T01:23:47.990Z,99271.59
2022-11-18T01:26:18.598Z,99269.69
2022-11-18T01:28:46.419Z,99261.06
2022-11-18T01:31:19.401Z,99256.44
2022-11-18T01:33:47.464Z,99258.88
2022-11-18T01:36:25.214Z,99264.19
2022-11-18T01:38:54.905Z,99253.09
2022-11-18T01:41:25.704Z,99247.78
2022-11-18T01:44:01.735Z,99240.75
2022-11-18T01:46:33.827Z,99241.19
2022-11-18T01:49:04.102Z,99233.34
2022-11-18T01:51:36.748Z,99224.63
2022-11-18T01:54:12.864Z,99219.91
2022-11-18T01:56:45.434Z,99194.91
2022-11-18T01:59:17.796Z,99193.56
2022-11-18T02:01:47.557Z,99189.97
2022-11-18T02:04:15.668Z,99175.88
2022-11-18T02:06:45.911Z,99169.22
2022-11-18T02:09:16.577Z,99152.41
2022-11-18T02:11:56.624Z,99153.53
2022-11-18T02:14:30.027Z,99141.00
2022-11-18T02:17:18.757Z,99119.03
2022-11-18T02:19:53.129Z,99117.34
2022-11-18T02:22:23.612Z,99121.41
2022-11-18T02:25:05.215Z,99110.69
2022-11-18T02:27:38.702Z,99095.38
2022-11-18T02:30:13.140Z,99088.81
2022-11-18T02:33:14.538Z,99100.91
2022-11-18T02:35:57.557Z,99096.16
2022-11-18T02:38:31.365Z,99084.34
2022-11-18T02:41:05.873Z,99075.47
2022-11-18T02:43:41.444Z,99084.03
2022-11-18T02:46:15.295Z,99081.72
2022-11-18T02:48:48.474Z,99073.44
2022-11-18T02:51:21.419Z,99077.19
2022-11-18T02:53:50.570Z,99069.66
2022-11-18T02:56:20.359Z,99069.78
2022-11-18T02:58:48.187Z,99079.81
2022-11-18T03:01:21.550Z,99070.44
2022-11-18T03:03:49.218Z,99074.03
2022-11-18T03:06:49.358Z,99091.13
2022-11-18T03:09:31.379Z,99099.03
2022-11-18T03:12:30.626Z,99105.69
2022-11-18T03:15:27.063Z,99111.88
2022-11-18T03:18:21.850Z,99124.53
2022-11-18T03:21:14.937Z,99141.50
2022-11-18T03:23:59.214Z,99145.25
2022-11-18T03:26:34.719Z,99140.09
2022-11-18T03:29:11.880Z,99140.75
2022-11-18T03:31:54.908Z,99128.72
2022-11-18T03:34:30.443Z,99105.53
2022-11-18T03:37:01.196Z,99104.53
2022-11-18T03:39:34.356Z,99085.88
2022-11-18T03:42:15.608Z,99077.47
2022-11-18T03:44:52.360Z,99051.13
2022-11-18T03:47:29.522Z,99038.72
2022-11-18T03:50:08.797Z,99032.59
2022-11-18T03:52:37.773Z,99038.09
2022-11-18T03:55:12.686Z,99039.88
2022-11-18T03:58:15.592Z,99054.34
2022-11-18T04:00:46.378Z,99045.19
2022-11-18T04:03:14.787Z,99038.34
2022-11-18T04:05:43.709Z,99056.53
2022-11-18T04:08:18.502Z,99070.09
2022-11-18T04:10:51.047Z,99086.38
2022-11-18T04:13:29.768Z,99077.03
2022-11-18T04:16:01.241Z,99082.19
2022-11-18T04:18:29.108Z,99078.47
2022-11-18T04:20:56.875Z,99081.94
2022-11-18T04:23:24.502Z,99079.44
2022-11-18T04:25:52.306Z,99076.19
2022-11-18T04:28:19.989Z,99080.03
2022-11-18T04:30:47.680Z,99087.78
2022-11-18T04:33:17.934Z,99091.34
2022-11-18T04:35:47.425Z,99094.09
2022-11-18T04:38:22.137Z,99076.16
2022-11-18T04:40:54.203Z,99077.84
2022-11-18T04:43:24.182Z,99057.31
2022-11-18T04:45:51.915Z,99054.66
2022-11-18T04:48:22.023Z,99062.75
2022-11-18T04:50:49.712Z,99058.00
2022-11-18T04:53:18.550Z,99053.91
2022-11-18T04:55:46.251Z,99052.53
2022-11-18T04:58:13.890Z,99048.50
2022-11-18T05:00:41.563Z,99045.06
2022-11-18T05:03:09.448Z,99044.19
2022-11-18T05:05:39.395Z,99045.69
2022-11-18T05:08:07.067Z,99052.56
2022-11-18T05:10:35.838Z,99064.69
2022-11-18T05:13:03.519Z,99058.84
2022-11-18T05:15:31.223Z,99064.13
2022-11-18T05:17:59.041Z,99058.84
2022-11-18T05:20:26.965Z,99050.31
2022-11-18T05:22:54.735Z,99049.59
2022-11-18T05:25:22.415Z,99051.41
2022-11-18T05:27:52.598Z,99048.53
2022-11-18T05:30:20.386Z,99046.56
2022-11-18T05:32:48.025Z,99032.59
2022-11-18T05:35:18.326Z,99036.03
2022-11-18T05:37:45.903Z,99039.44
2022-11-18T05:40:15.511Z,99034.47
2022-11-18T05:43:01.613Z,99031.50
2022-11-18T05:45:31.376Z,99040.59
2022-11-18T05:48:03.214Z,99034.47
2022-11-18T05:50:32.912Z,99033.31
2022-11-18T05:53:01.285Z,99038.56
2022-11-18T05:58:33.866Z,99065.44
2022-11-18T06:01:19.963Z,99048.72
2022-11-18T06:03:51.682Z,99059.09
2022-11-18T06:06:23.041Z,99064.47
2022-11-18T06:09:04.467Z,99062.53
2022-11-18T06:11:53.867Z,99073.19
2022-11-18T06:14:28.593Z,99066.97
2022-11-18T06:17:03.088Z,99073.09
2022-11-18T06:19:32.413Z,99071.25
2022-11-18T06:22:08.289Z,99080.75
2022-11-18T06:24:37.342Z,99080.16
2022-11-18T06:27:05.190Z,99074.97
2022-11-18T06:29:32.915Z,99082.00
2022-11-18T06:32:00.581Z,99072.97
2022-11-18T06:34:28.213Z,99076.97
2022-11-18T06:37:03.483Z,99080.94
2022-11-18T06:39:37.524Z,99082.78
2022-11-18T06:42:05.471Z,99092.22
2022-11-18T06:44:33.343Z,99093.16
2022-11-18T06:47:02.672Z,99092.41
2022-11-18T06:49:30.539Z,99093.38
2022-11-18T06:51:58.072Z,99090.09
2022-11-18T06:54:25.688Z,99091.41
2022-11-18T06:56:53.377Z,99091.25
2022-11-18T06:59:24.076Z,99105.63
2022-11-18T07:01:53.480Z,99108.81
2022-11-18T07:04:21.536Z,99099.66
2022-11-18T07:06:49.305Z,99095.00
2022-11-18T07:09:19.884Z,99100.97
2022-11-18T07:11:50.113Z,99103.91
2022-11-18T07:14:17.884Z,99109.56
2022-11-18T07:16:45.534Z,99110.69
2022-11-18T07:19:14.203Z,99131.78
2022-11-18T07:21:43.492Z,99138.66
2022-11-18T07:24:14.690Z,99138.41
2022-11-18T07:26:44.979Z,99142.13
2022-11-18T07:29:12.740Z,99147.13
2022-11-18T07:31:41.027Z,99153.72
2022-11-18T07:34:08.821Z,99155.09
2022-11-18T07:36:36.437Z,99159.84
2022-11-18T07:39:13.355Z,99163.13
2022-11-18T07:41:47.363Z,99164.91
2022-11-18T07:44:17.534Z,99177.06
2022-11-18T07:46:45.868Z,99179.75
2022-11-18T07:49:13.630Z,99188.41
2022-11-18T07:51:41.310Z,99190.84
2022-11-18T07:54:11.399Z,99192.66
2022-11-18T07:56:39.138Z,99188.41
2022-11-18T07:59:07.120Z,99191.72
2022-11-18T08:01:35.653Z,99181.75
2022-11-18T08:04:11.691Z,99181.09
2022-11-18T08:06:40.553Z,99181.28
2022-11-18T08:09:09.096Z,99188.38
2022-11-18T08:11:37.060Z,99191.13
2022-11-18T08:14:07.841Z,99195.13
2022-11-18T08:16:35.528Z,99186.53
2022-11-18T08:19:03.236Z,99187.34
2022-11-18T08:21:30.924Z,99180.47
2022-11-18T08:23:59.184Z,99175.38
2022-11-18T08:26:27.656Z,99176.91
2022-11-18T08:28:58.379Z,99172.72
2022-11-18T08:31:28.783Z,99174.69
2022-11-18T08:34:07.719Z,99173.25
2022-11-18T08:36:38.379Z,99171.81
2022-11-18T08:39:08.428Z,99174.59
2022-11-18T08:41:54.279Z,99164.06
2022-11-18T08:44:29.258Z,99158.84
2022-11-18T08:46:56.881Z,99167.13
2022-11-18T08:49:29.615Z,99159.06
2022-11-18T08:51:59.910Z,99162.50
2022-11-18T08:54:27.551Z,99168.50
2022-11-18T08:56:55.907Z,99165.16
2022-11-18T08:59:23.791Z,99174.78
2022-11-18T09:01:51.680Z,99173.19
2022-11-18T09:12:27.256Z,99177.81
2022-11-18T09:15:15.354Z,99181.06
2022-11-18T09:17:43.491Z,99182.09
2022-11-18T09:20:14.722Z,99181.81
2022-11-18T09:22:42.293Z,99183.25
2022-11-18T09:25:10.202Z,99175.16
2022-11-18T09:27:37.645Z,99177.28
2022-11-18T09:30:05.987Z,99175.53
2022-11-18T09:32:34.199Z,99190.03
2022-11-18T09:35:01.727Z,99179.19
2022-11-18T09:37:29.416Z,99196.22
2022-11-18T09:39:57.059Z,99194.66
2022-11-18T09:42:43.196Z,99187.44
2022-11-18T09:45:23.618Z,99193.44
2022-11-18T09:47:52.010Z,99199.25
2022-11-18T09:53:23.234Z,99203.88
2022-11-18T09:55:52.371Z,99202.78
2022-11-18T09:58:38.930Z,99197.09
2022-11-18T10:01:13.383Z,99191.34
2022-11-18T10:03:41.456Z,99188.16
2022-11-18T10:06:09.744Z,99196.41
2022-11-18T10:08:49.799Z,99185.06
2022-11-18T10:11:19.632Z,99189.34
2022-11-18T10:13:48.164Z,99190.88
2022-11-18T10:16:33.552Z,99180.41
2022-11-18T10:19:15.922Z,99188.31
2022-11-18T10:22:15.813Z,99177.53
2022-11-18T10:24:51.549Z,99169.22
2022-11-18T10:27:23.345Z,99174.09
2022-11-18T10:29:57.405Z,99167.44
2022-11-18T10:32:25.354Z,99170.19
2022-11-18T10:34:55.663Z,99179.13
2022-11-18T10:38:05.785Z,99175.16
2022-11-18T10:40:27.057Z,99183.75
2022-11-18T10:42:54.753Z,99175.34
2022-11-18T10:45:32.591Z,99168.16
2022-11-18T10:48:09.358Z,99171.84
2022-11-18T10:50:41.221Z,99178.44
2022-11-18T10:53:34.533Z,99171.97
2022-11-18T10:56:01.945Z,99176.09
2022-11-18T10:58:37.137Z,99172.75
2022-11-18T11:01:29.129Z,99168.75
2022-11-18T11:04:12.343Z,99167.88
2022-11-18T11:06:39.956Z,99165.41
2022-11-18T11:09:25.767Z,99172.38
2022-11-18T11:11:59.092Z,99168.63
2022-11-18T11:14:26.559Z,99172.44
2022-11-18T11:16:58.952Z,99165.34
2022-11-18T11:19:50.735Z,99172.09
2022-11-18T11:22:18.793Z,99177.00
2022-11-18T11:24:46.338Z,99171.31
2022-11-18T11:30:24.016Z,99167.81
2022-11-18T11:32:54.275Z,99172.25
2022-11-18T11:35:30.394Z,99183.41
2022-11-18T11:38:04.347Z,99181.66
2022-11-18T11:40:35.031Z,99189.47
2022-11-18T11:43:40.010Z,99182.47
2022-11-18T11:46:16.188Z,99181.09
2022-11-18T11:48:58.939Z,99174.38
2022-11-18T11:51:40.557Z,99181.63
2022-11-18T11:54:40.384Z,99193.19
2022-11-18T11:57:33.808Z,99179.88
2022-11-18T12:00:10.580Z,99177.75
2022-11-18T12:02:49.477Z,99180.81
2022-11-18T12:05:20.681Z,99177.47
2022-11-18T12:08:23.296Z,99182.97
2022-11-18T12:11:12.056Z,99174.41
2022-11-18T12:13:53.822Z,99166.28
2022-11-18T12:16:33.817Z,99174.66
2022-11-18T12:19:27.343Z,99177.06
2022-11-18T12:22:00.611Z,99185.78
2022-11-18T12:24:37.155Z,99185.34
2022-11-18T12:27:34.385Z,99193.44
2022-11-18T12:30:04.092Z,99190.91
2022-11-18T12:32:43.019Z,99195.78
2022-11-18T12:35:13.441Z,99195.41
2022-11-18T12:37:53.193Z,99197.22
2022-11-18T12:40:32.681Z,99190.28
2022-11-18T12:43:36.294Z,99189.41
2022-11-18T12:46:03.872Z,99193.78
2022-11-18T12:48:32.945Z,99178.13
2022-11-18T12:51:31.075Z,99172.34
2022-11-18T12:53:58.501Z,99173.84
2022-11-18T12:56:34.894Z,99172.19
2022-11-18T12:59:02.854Z,99175.31
2022-11-18T13:01:35.355Z,99159.78
2022-11-18T13:04:17.490Z,99176.59
2022-11-18T13:06:45.081Z,99174.78
2022-11-18T13:09:18.929Z,99180.63
2022-11-18T13:11:52.156Z,99180.94
2022-11-18T13:14:50.644Z,99194.09
2022-11-18T13:17:48.502Z,99186.75
2022-11-18T13:20:36.217Z,99190.41
2022-11-18T13:23:32.982Z,99193.91
2022-11-18T13:26:17.871Z,99183.00
2022-11-18T13:29:09.258Z,99188.56
2022-11-18T13:32:02.739Z,99185.13
2022-11-18T13:34:32.011Z,99189.94
2022-11-18T13:37:00.732Z,99186.59
2022-11-18T13:39:32.833Z,99186.13
2022-11-18T13:42:14.731Z,99189.03
2022-11-18T13:45:01.219Z,99182.28
2022-11-18T13:47:51.104Z,99195.69
2022-11-18T13:50:28.813Z,99203.19
2022-11-18T13:53:07.018Z,99202.69
2022-11-18T13:55:40.713Z,99208.19
2022-11-18T13:58:20.125Z,99205.34
2022-11-18T14:01:00.708Z,99203.97
2022-11-18T14:03:46.185Z,99214.38
2022-11-18T14:06:27.465Z,99215.22
2022-11-18T14:09:30.188Z,99229.81
2022-11-18T14:12:02.703Z,99218.09
2022-11-18T14:14:35.880Z,99216.22
2022-11-18T14:17:20.768Z,99216.56
2022-11-18T14:19:51.509Z,99213.91
2022-11-18T14:22:24.633Z,99222.44
2022-11-18T14:25:05.242Z,99220.22
2022-11-18T14:27:40.063Z,99218.84
2022-11-18T14:30:31.246Z,99223.97
2022-11-18T14:33:27.503Z,99238.94
2022-11-18T14:36:11.437Z,99232.91
2022-11-18T14:41:49.638Z,99232.59
2022-11-18T14:44:19.284Z,99231.00
2022-11-18T14:46:52.325Z,99226.25
2022-11-18T14:49:23.158Z,99231.53
2022-11-18T14:51:52.786Z,99225.00
2022-11-18T14:54:26.843Z,99238.59
2022-11-18T14:56:58.567Z,99228.94
2022-11-18T14:59:26.770Z,99237.22
2022-11-18T15:01:56.731Z,99246.47
2022-11-18T15:04:25.361Z,99249.31
2022-11-18T15:06:53.272Z,99254.94
2022-11-18T15:09:21.427Z,99255.44
2022-11-18T15:11:48.973Z,99248.63
2022-11-18T15:14:16.804Z,99252.94
2022-11-18T15:16:44.777Z,99257.66
2022-11-18T15:19:15.661Z,99258.59
2022-11-18T15:21:45.472Z,99260.13
2022-11-18T15:24:13.515Z,99269.91
2022-11-18T15:26:43.764Z,99271.31
2022-11-18T15:29:19.697Z,99282.38
2022-11-18T15:31:48.279Z,99278.63
2022-11-18T15:34:18.360Z,99283.41
2022-11-18T15:36:46.747Z,99277.78
2022-11-18T15:39:21.557Z,99283.31
2022-11-18T15:41:51.716Z,99293.47
2022-11-18T15:44:20.740Z,99290.09
2022-11-18T15:46:49.645Z,99290.03
2022-11-18T15:49:18.165Z,99296.38
2022-11-18T15:51:45.682Z,99298.16
2022-11-18T15:54:13.133Z,99293.34
2022-11-18T15:56:41.790Z,99290.28
2022-11-18T15:59:11.848Z,99291.84
2022-11-18T16:01:46.598Z,99286.47
2022-11-18T16:04:17.002Z,99289.38
2022-11-18T16:06:45.285Z,99278.59
2022-11-18T16:09:14.085Z,99274.53
2022-11-18T16:12:00.664Z,99274.06
2022-11-18T16:14:28.437Z,99276.41
2022-11-18T16:16:56.776Z,99289.38
2022-11-18T16:19:26.113Z,99288.25
2022-11-18T16:21:57.212Z,99286.25
2022-11-18T16:24:27.840Z,99287.38
2022-11-18T16:26:56.352Z,99295.50
2022-11-18T16:29:25.238Z,99299.22
2022-11-18T16:31:54.538Z,99303.84
2022-11-18T16:34:28.444Z,99305.41
2022-11-18T16:36:58.162Z,99315.34
2022-11-18T16:39:28.290Z,99316.84
2022-11-18T16:42:03.869Z,99328.22
2022-11-18T16:44:35.578Z,99337.81
2022-11-18T16:47:08.961Z,99346.06
2022-11-18T16:49:38.262Z,99356.78
2022-11-18T16:52:07.400Z,99365.44
2022-11-18T16:54:37.247Z,99366.81
2022-11-18T16:57:08.974Z,99384.13
2022-11-18T16:59:36.949Z,99389.09
2022-11-18T17:02:05.274Z,99398.91
2022-11-18T17:04:35.503Z,99400.16
2022-11-18T17:07:03.481Z,99397.81
2022-11-18T17:09:31.227Z,99401.97
2022-11-18T17:11:59.039Z,99379.00
2022-11-18T17:14:26.760Z,99378.28
2022-11-18T17:16:54.385Z,99381.00
2022-11-18T17:19:24.027Z,99384.97
2022-11-18T17:21:52.464Z,99399.81
2022-11-18T17:24:22.439Z,99404.84
2022-11-18T17:26:52.341Z,99418.16
2022-11-18T17:29:20.982Z,99417.13
2022-11-18T17:31:49.606Z,99428.31
2022-11-18T17:34:17.550Z,99419.50
2022-11-18T17:36:45.449Z,99425.78
2022-11-18T17:39:13.523Z,99418.66
2022-11-18T17:41:59.986Z,99433.59
2022-11-18T17:44:28.220Z,99443.44
2022-11-18T17:46:56.126Z,99440.28
2022-11-18T17:49:23.755Z,99459.50
2022-11-18T17:51:51.717Z,99460.44
2022-11-18T17:54:20.760Z,99469.59
2022-11-18T17:56:50.077Z,99479.00
2022-11-18T17:59:18.282Z,99482.50
2022-11-18T18:01:46.214Z,99483.28
2022-11-18T18:04:15.415Z,99482.44
2022-11-18T18:06:42.989Z,99482.44
2022-11-18T18:09:10.689Z,99485.91
2022-11-18T18:11:39.980Z,99479.44
2022-11-18T18:14:13.091Z,99481.66
2022-11-18T18:16:44.473Z,99488.22
2022-11-18T18:19:15.025Z,99481.19
2022-11-18T18:21:42.543Z,99482.81
2022-11-18T18:24:11.363Z,99482.81
2022-11-18T18:26:39.015Z,99480.25
2022-11-18T18:29:06.567Z,99480.34
2022-11-18T18:31:36.486Z,99474.16
2022-11-18T18:34:04.751Z,99482.25
2022-11-18T18:36:32.855Z,99464.06
2022-11-18T18:39:01.761Z,99460.34
2022-11-18T18:41:29.334Z,99468.94
2022-11-18T18:43:57.105Z,99465.06
2022-11-18T18:46:30.132Z,99466.66
2022-11-18T18:49:20.473Z,99478.47
2022-11-18T18:51:49.638Z,99483.56
2022-11-18T18:54:19.137Z,99487.22
2022-11-18T18:56:46.844Z,99478.13
2022-11-18T18:59:14.457Z,99477.75
2022-11-18T19:01:42.385Z,99481.28
2022-11-18T21:14:44.816Z,99564.88
2022-11-18T22:18:38.410Z,99595.38
2022-11-18T22:55:56.090Z,99658.56
2022-11-18T22:58:35.686Z,99638.28
2022-11-18T23:02:08.882Z,99652.69
2022-11-18T23:06:29.189Z,99653.44
2022-11-18T23:08:26.581Z,99662.97
2022-11-18T23:12:26.313Z,99670.72
